LNG Imo — ZCDT6 — position and weather

sailwx.info

Track history (hours):
 
Tides and Currents Weather Stations Pressure Air Temp Water Temp Dewpoint Dewpoint Depression Visibility Wind Speed Wind Dir Waves Ship Positions

LNG Imo

Last reported at 2015-May-29 11:33 UTC. Time now 2015-May-30 20:30 UTC.
Position N 28°24' W 016°13'.

Length 288 m; draft 9.9 m.

Type: Ship (hazmat cat D). MMSI: 310565000.

Date/timePositionNaut miles runAvg speedWind from/ knotsBaromVisibWave heightAir tempDewpointWater temp
2015-May-29 11:33N 28°24' W 016°13'6 5.2
2015-May-29 10:28N 28°29' W 016°12'0 0.1
2015-May-29 09:28N 28°29' W 016°11'0 0.0
2015-May-28 12:25N 28°29' W 016°12'0 0.0
2015-May-28 11:13N 28°29' W 016°11'0 0.0
2015-May-28 10:22N 28°29' W 016°11'0 0.1
2015-May-28 09:28N 28°29' W 016°12'0 0.1
2015-May-28 08:28N 28°29' W 016°11'0 0.0
2015-May-28 07:28N 28°29' W 016°11'0 0.0
2015-May-28 06:28N 28°29' W 016°11'0 0.0
2015-May-28 05:31N 28°29' W 016°11'0 0.0
2015-May-28 04:31N 28°29' W 016°11'0 0.0
2015-May-28 03:31N 28°29' W 016°11'0 0.1
2015-May-28 02:31N 28°29' W 016°11'0 0.0
2015-May-28 01:22N 28°29' W 016°11'0 0.0
2015-May-28 00:22N 28°29' W 016°11'0 0.0
2015-May-27 23:25N 28°29' W 016°11'0 0.0
2015-May-27 22:25N 28°29' W 016°11'0 0.1
2015-May-27 21:25N 28°29' W 016°12'0 0.0
2015-May-27 20:25N 28°29' W 016°11'0 0.0
2015-May-27 19:28N 28°29' W 016°11'0 0.0
2015-May-27 18:25N 28°29' W 016°12'0 0.0
2015-May-27 17:33N 28°29' W 016°12'1 0.9
2015-May-27 16:33N 28°28' W 016°12'1 0.6
2015-May-27 15:32N 28°28' W 016°13'6 5.7
2015-May-27 14:32N 28°30' W 016°06'1615.9
2015-May-27 13:33N 28°41' W 015°54'1615.7
2015-May-27 12:33N 28°52' W 015°42'1615.7
2015-May-27 11:33N 29°04' W 015°30'1615.7
2015-May-27 10:32N 29°15' W 015°17'42613.3
2015-May-26 02:28N 34°25' W 009°33'20 9.7
2015-May-26 00:25N 34°40' W 009°16'8 9.4
2015-May-25 23:32N 34°46' W 009°09'38 9.6
2015-May-25 19:32N 35°14' W 008°37'1010.3
2015-May-25 18:33N 35°21' W 008°29'40 0.9
2015-May-23 22:17N 35°50' W 007°54'12515.7
2015-May-23 14:20N 34°12' W 009°28'1315.9
2015-May-23 13:30N 34°01' W 009°38'15116.5
2015-May-23 04:22N 32°02' W 011°29'3316.7
2015-May-23 02:25N 31°37' W 011°53'  
Track history (hours):
 
Tides and Currents Weather Stations Pressure Air Temp Water Temp Dewpoint Dewpoint Depression Visibility Wind Speed Wind Dir Waves Ship Positions

LNG Imo

Last reported at 2015-May-29 11:33 UTC. Time now 2015-May-30 20:30 UTC.
Position N 28°24' W 016°13'.

Length 288 m; draft 9.9 m.

Type: Ship (hazmat cat D). MMSI: 310565000.

Date/timePositionNaut miles runAvg speedWind from/ knotsBaromVisibWave heightAir tempDewpointWater temp
2015-May-29 11:33N 28°24' W 016°13'6 5.2
2015-May-29 10:28N 28°29' W 016°12'0 0.1
2015-May-29 09:28N 28°29' W 016°11'0 0.0
2015-May-28 12:25N 28°29' W 016°12'0 0.0
2015-May-28 11:13N 28°29' W 016°11'0 0.0
2015-May-28 10:22N 28°29' W 016°11'0 0.1
2015-May-28 09:28N 28°29' W 016°12'0 0.1
2015-May-28 08:28N 28°29' W 016°11'0 0.0
2015-May-28 07:28N 28°29' W 016°11'0 0.0
2015-May-28 06:28N 28°29' W 016°11'0 0.0
2015-May-28 05:31N 28°29' W 016°11'0 0.0
2015-May-28 04:31N 28°29' W 016°11'0 0.0
2015-May-28 03:31N 28°29' W 016°11'0 0.1
2015-May-28 02:31N 28°29' W 016°11'0 0.0
2015-May-28 01:22N 28°29' W 016°11'0 0.0
2015-May-28 00:22N 28°29' W 016°11'0 0.0
2015-May-27 23:25N 28°29' W 016°11'0 0.0
2015-May-27 22:25N 28°29' W 016°11'0 0.1
2015-May-27 21:25N 28°29' W 016°12'0 0.0
2015-May-27 20:25N 28°29' W 016°11'0 0.0
2015-May-27 19:28N 28°29' W 016°11'0 0.0
2015-May-27 18:25N 28°29' W 016°12'0 0.0
2015-May-27 17:33N 28°29' W 016°12'1 0.9
2015-May-27 16:33N 28°28' W 016°12'1 0.6
2015-May-27 15:32N 28°28' W 016°13'6 5.7
2015-May-27 14:32N 28°30' W 016°06'1615.9
2015-May-27 13:33N 28°41' W 015°54'1615.7
2015-May-27 12:33N 28°52' W 015°42'1615.7
2015-May-27 11:33N 29°04' W 015°30'1615.7
2015-May-27 10:32N 29°15' W 015°17'42613.3
2015-May-26 02:28N 34°25' W 009°33'20 9.7
2015-May-26 00:25N 34°40' W 009°16'8 9.4
2015-May-25 23:32N 34°46' W 009°09'38 9.6
2015-May-25 19:32N 35°14' W 008°37'1010.3
2015-May-25 18:33N 35°21' W 008°29'40 0.9
2015-May-23 22:17N 35°50' W 007°54'12515.7
2015-May-23 14:20N 34°12' W 009°28'1315.9
2015-May-23 13:30N 34°01' W 009°38'15116.5
2015-May-23 04:22N 32°02' W 011°29'3316.7
2015-May-23 02:25N 31°37' W 011°53'  

Dump ship's entire track history